Terminal Aerodrome Forecast
Issued by NWS Wilmington, OH

Current Version | Previous Version | Graphics & Text | Print | Product List | Glossary Off
Versions: 1 2 3 4 5 6 7 8 9 10 11 12 13 14 15 16 17 18 19 20

000
FTUS41 KILN 282330
TAFDAY
TAF
KDAY 282330Z 2900/2924 01009KT P6SM OVC015
     FM291300 05007KT P6SM BKN015
     FM291600 05008KT P6SM BKN030
     FM291700 06008KT P6SM SCT040
     FM292100 08008KT P6SM SCT200=

USA.gov is the U.S. government's official web portal to all federal, state and local government web resources and services.